sensor_id;sensor_type;location;lat;lon;timestamp;P1;durP1;ratioP1;P2;durP2;ratioP2
43311;SDS011;30041;48.300;16.352;2024-03-08T00:01:20;11.77;;;9.30;;
43311;SDS011;30041;48.300;16.352;2024-03-08T00:03:46;11.05;;;9.82;;
43311;SDS011;30041;48.300;16.352;2024-03-08T00:06:13;11.27;;;9.52;;
43311;SDS011;30041;48.300;16.352;2024-03-08T00:08:39;9.85;;;8.85;;
43311;SDS011;30041;48.300;16.352;2024-03-08T00:11:06;10.48;;;9.38;;
43311;SDS011;30041;48.300;16.352;2024-03-08T00:13:33;11.10;;;9.57;;
43311;SDS011;30041;48.300;16.352;2024-03-08T00:15:59;10.18;;;9.02;;
43311;SDS011;30041;48.300;16.352;2024-03-08T00:18:28;10.85;;;9.45;;
43311;SDS011;30041;48.300;16.352;2024-03-08T00:20:55;9.52;;;8.52;;
43311;SDS011;30041;48.300;16.352;2024-03-08T00:23:21;9.63;;;8.43;;
43311;SDS011;30041;48.300;16.352;2024-03-08T00:25:57;10.73;;;9.00;;
43311;SDS011;30041;48.300;16.352;2024-03-08T00:28:24;10.13;;;8.93;;
43311;SDS011;30041;48.300;16.352;2024-03-08T00:30:50;11.07;;;9.88;;
43311;SDS011;30041;48.300;16.352;2024-03-08T00:33:20;10.27;;;9.18;;
43311;SDS011;30041;48.300;16.352;2024-03-08T00:35:45;10.70;;;9.60;;
43311;SDS011;30041;48.300;16.352;2024-03-08T00:38:12;10.38;;;8.88;;
43311;SDS011;30041;48.300;16.352;2024-03-08T00:40:38;10.18;;;8.85;;
43311;SDS011;30041;48.300;16.352;2024-03-08T00:43:04;9.25;;;8.30;;
43311;SDS011;30041;48.300;16.352;2024-03-08T00:45:30;9.95;;;8.95;;
43311;SDS011;30041;48.300;16.352;2024-03-08T00:48:00;9.85;;;8.85;;
43311;SDS011;30041;48.300;16.352;2024-03-08T00:50:26;10.52;;;9.05;;
43311;SDS011;30041;48.300;16.352;2024-03-08T00:52:56;9.90;;;8.45;;
43311;SDS011;30041;48.300;16.352;2024-03-08T00:55:22;9.70;;;8.70;;
43311;SDS011;30041;48.300;16.352;2024-03-08T00:57:48;10.45;;;9.35;;
43311;SDS011;30041;48.300;16.352;2024-03-08T01:00:17;9.95;;;8.95;;
43311;SDS011;30041;48.300;16.352;2024-03-08T01:02:46;9.75;;;8.68;;
43311;SDS011;30041;48.300;16.352;2024-03-08T01:05:13;9.80;;;8.40;;
43311;SDS011;30041;48.300;16.352;2024-03-08T01:07:40;9.88;;;8.57;;
43311;SDS011;30041;48.300;16.352;2024-03-08T01:10:09;10.20;;;8.98;;
43311;SDS011;30041;48.300;16.352;2024-03-08T01:12:38;9.80;;;8.77;;
43311;SDS011;30041;48.300;16.352;2024-03-08T01:15:05;9.48;;;8.43;;
43311;SDS011;30041;48.300;16.352;2024-03-08T01:17:32;9.88;;;8.88;;
43311;SDS011;30041;48.300;16.352;2024-03-08T01:20:07;10.17;;;9.00;;
43311;SDS011;30041;48.300;16.352;2024-03-08T01:22:40;10.63;;;9.25;;
43311;SDS011;30041;48.300;16.352;2024-03-08T01:25:07;9.35;;;8.02;;
43311;SDS011;30041;48.300;16.352;2024-03-08T01:27:40;9.95;;;8.93;;
43311;SDS011;30041;48.300;16.352;2024-03-08T01:30:06;9.80;;;8.80;;
43311;SDS011;30041;48.300;16.352;2024-03-08T01:32:37;9.55;;;8.38;;
43311;SDS011;30041;48.300;16.352;2024-03-08T01:35:07;9.88;;;8.50;;
43311;SDS011;30041;48.300;16.352;2024-03-08T01:37:37;8.98;;;8.07;;
43311;SDS011;30041;48.300;16.352;2024-03-08T01:40:07;10.35;;;8.95;;
43311;SDS011;30041;48.300;16.352;2024-03-08T01:42:40;9.43;;;8.32;;
43311;SDS011;30041;48.300;16.352;2024-03-08T01:45:07;10.10;;;8.35;;
43311;SDS011;30041;48.300;16.352;2024-03-08T01:47:36;8.73;;;7.82;;
43311;SDS011;30041;48.300;16.352;2024-03-08T01:50:03;9.57;;;8.45;;
43311;SDS011;30041;48.300;16.352;2024-03-08T01:52:33;9.55;;;8.55;;
43311;SDS011;30041;48.300;16.352;2024-03-08T01:55:00;10.35;;;9.10;;
43311;SDS011;30041;48.300;16.352;2024-03-08T01:57:32;10.25;;;9.05;;
43311;SDS011;30041;48.300;16.352;2024-03-08T02:00:03;10.55;;;9.02;;
43311;SDS011;30041;48.300;16.352;2024-03-08T02:02:32;10.60;;;8.98;;
43311;SDS011;30041;48.300;16.352;2024-03-08T02:05:00;10.05;;;8.95;;
43311;SDS011;30041;48.300;16.352;2024-03-08T02:07:26;10.90;;;9.02;;
43311;SDS011;30041;48.300;16.352;2024-03-08T02:09:53;9.65;;;8.63;;
43311;SDS011;30041;48.300;16.352;2024-03-08T02:12:22;9.95;;;8.80;;
43311;SDS011;30041;48.300;16.352;2024-03-08T02:14:53;9.55;;;8.43;;
43311;SDS011;30041;48.300;16.352;2024-03-08T02:17:19;10.35;;;9.00;;
43311;SDS011;30041;48.300;16.352;2024-03-08T02:19:46;9.75;;;8.75;;
43311;SDS011;30041;48.300;16.352;2024-03-08T02:22:20;10.60;;;9.32;;
43311;SDS011;30041;48.300;16.352;2024-03-08T02:24:48;10.63;;;8.57;;
43311;SDS011;30041;48.300;16.352;2024-03-08T02:27:15;10.27;;;8.80;;
43311;SDS011;30041;48.300;16.352;2024-03-08T02:29:55;10.27;;;9.07;;
43311;SDS011;30041;48.300;16.352;2024-03-08T02:32:24;9.48;;;8.32;;
43311;SDS011;30041;48.300;16.352;2024-03-08T02:35:03;9.57;;;8.13;;
43311;SDS011;30041;48.300;16.352;2024-03-08T02:37:33;10.18;;;9.00;;
43311;SDS011;30041;48.300;16.352;2024-03-08T02:39:59;9.52;;;8.45;;
43311;SDS011;30041;48.300;16.352;2024-03-08T02:42:25;9.65;;;8.60;;
43311;SDS011;30041;48.300;16.352;2024-03-08T02:44:58;10.93;;;8.98;;
43311;SDS011;30041;48.300;16.352;2024-03-08T02:47:25;9.48;;;8.48;;
43311;SDS011;30041;48.300;16.352;2024-03-08T02:49:51;10.57;;;9.02;;
43311;SDS011;30041;48.300;16.352;2024-03-08T02:52:18;9.77;;;8.63;;
43311;SDS011;30041;48.300;16.352;2024-03-08T02:54:51;9.68;;;8.68;;
43311;SDS011;30041;48.300;16.352;2024-03-08T02:57:17;9.50;;;8.27;;
43311;SDS011;30041;48.300;16.352;2024-03-08T02:59:43;10.20;;;8.52;;
43311;SDS011;30041;48.300;16.352;2024-03-08T03:02:10;9.70;;;8.68;;
43311;SDS011;30041;48.300;16.352;2024-03-08T03:04:36;9.65;;;8.48;;
43311;SDS011;30041;48.300;16.352;2024-03-08T03:07:02;9.70;;;8.20;;
43311;SDS011;30041;48.300;16.352;2024-03-08T03:09:28;9.68;;;8.68;;
43311;SDS011;30041;48.300;16.352;2024-03-08T03:11:54;10.13;;;8.75;;
43311;SDS011;30041;48.300;16.352;2024-03-08T03:14:21;10.02;;;8.48;;
43311;SDS011;30041;48.300;16.352;2024-03-08T03:16:47;9.27;;;8.27;;
43311;SDS011;30041;48.300;16.352;2024-03-08T03:19:14;9.23;;;7.90;;
43311;SDS011;30041;48.300;16.352;2024-03-08T03:21:49;9.20;;;8.23;;
43311;SDS011;30041;48.300;16.352;2024-03-08T03:24:16;9.32;;;7.70;;
43311;SDS011;30041;48.300;16.352;2024-03-08T03:26:42;9.82;;;8.43;;
43311;SDS011;30041;48.300;16.352;2024-03-08T03:29:11;9.45;;;8.30;;
43311;SDS011;30041;48.300;16.352;2024-03-08T03:31:38;8.75;;;7.60;;
43311;SDS011;30041;48.300;16.352;2024-03-08T03:34:04;9.43;;;8.43;;
43311;SDS011;30041;48.300;16.352;2024-03-08T03:36:31;9.45;;;8.45;;
43311;SDS011;30041;48.300;16.352;2024-03-08T03:38:57;9.38;;;7.90;;
43311;SDS011;30041;48.300;16.352;2024-03-08T03:41:24;8.55;;;7.65;;
43311;SDS011;30041;48.300;16.352;2024-03-08T03:43:50;8.60;;;7.43;;
43311;SDS011;30041;48.300;16.352;2024-03-08T03:46:26;8.73;;;7.68;;
43311;SDS011;30041;48.300;16.352;2024-03-08T03:48:53;9.13;;;7.80;;
43311;SDS011;30041;48.300;16.352;2024-03-08T03:51:25;9.35;;;8.35;;
43311;SDS011;30041;48.300;16.352;2024-03-08T03:53:51;8.65;;;7.75;;
43311;SDS011;30041;48.300;16.352;2024-03-08T03:56:19;9.18;;;8.15;;
43311;SDS011;30041;48.300;16.352;2024-03-08T03:58:52;9.57;;;8.50;;
43311;SDS011;30041;48.300;16.352;2024-03-08T04:01:22;8.98;;;7.68;;
43311;SDS011;30041;48.300;16.352;2024-03-08T04:03:52;9.75;;;8.27;;
43311;SDS011;30041;48.300;16.352;2024-03-08T04:06:18;9.35;;;8.25;;
43311;SDS011;30041;48.300;16.352;2024-03-08T04:08:45;9.25;;;7.93;;
43311;SDS011;30041;48.300;16.352;2024-03-08T04:11:20;9.15;;;7.78;;
43311;SDS011;30041;48.300;16.352;2024-03-08T04:16:18;8.98;;;8.05;;
43311;SDS011;30041;48.300;16.352;2024-03-08T04:18:47;9.23;;;8.23;;
43311;SDS011;30041;48.300;16.352;2024-03-08T04:21:19;8.65;;;7.75;;
43311;SDS011;30041;48.300;16.352;2024-03-08T04:23:46;9.25;;;7.55;;
43311;SDS011;30041;48.300;16.352;2024-03-08T04:26:15;9.50;;;7.18;;
43311;SDS011;30041;48.300;16.352;2024-03-08T04:28:45;10.57;;;8.77;;
43311;SDS011;30041;48.300;16.352;2024-03-08T04:31:14;16.88;;;14.05;;
43311;SDS011;30041;48.300;16.352;2024-03-08T04:33:40;12.57;;;10.85;;
43311;SDS011;30041;48.300;16.352;2024-03-08T04:36:07;13.73;;;10.05;;
43311;SDS011;30041;48.300;16.352;2024-03-08T04:38:34;11.68;;;9.35;;
43311;SDS011;30041;48.300;16.352;2024-03-08T04:41:03;10.35;;;8.82;;
43311;SDS011;30041;48.300;16.352;2024-03-08T04:43:30;10.18;;;8.30;;
43311;SDS011;30041;48.300;16.352;2024-03-08T04:45:56;17.52;;;13.68;;
43311;SDS011;30041;48.300;16.352;2024-03-08T04:48:26;15.45;;;9.65;;
43311;SDS011;30041;48.300;16.352;2024-03-08T04:50:53;16.05;;;10.00;;
43311;SDS011;30041;48.300;16.352;2024-03-08T04:53:20;12.27;;;10.48;;
43311;SDS011;30041;48.300;16.352;2024-03-08T04:55:46;12.65;;;8.75;;
43311;SDS011;30041;48.300;16.352;2024-03-08T04:58:13;9.48;;;7.72;;
43311;SDS011;30041;48.300;16.352;2024-03-08T05:00:39;7.95;;;6.93;;
43311;SDS011;30041;48.300;16.352;2024-03-08T05:03:05;8.73;;;6.60;;
43311;SDS011;30041;48.300;16.352;2024-03-08T05:05:38;9.38;;;6.38;;
43311;SDS011;30041;48.300;16.352;2024-03-08T05:08:04;7.45;;;5.85;;
43311;SDS011;30041;48.300;16.352;2024-03-08T05:10:31;7.70;;;5.75;;
43311;SDS011;30041;48.300;16.352;2024-03-08T05:12:57;7.50;;;5.43;;
43311;SDS011;30041;48.300;16.352;2024-03-08T05:15:24;6.70;;;5.55;;
43311;SDS011;30041;48.300;16.352;2024-03-08T05:17:50;7.03;;;4.90;;
43311;SDS011;30041;48.300;16.352;2024-03-08T05:20:17;7.00;;;5.00;;
43311;SDS011;30041;48.300;16.352;2024-03-08T05:22:43;5.22;;;4.00;;
43311;SDS011;30041;48.300;16.352;2024-03-08T05:25:09;4.95;;;4.07;;
43311;SDS011;30041;48.300;16.352;2024-03-08T05:27:36;5.32;;;4.45;;
43311;SDS011;30041;48.300;16.352;2024-03-08T05:30:03;34.58;;;18.33;;
43311;SDS011;30041;48.300;16.352;2024-03-08T05:32:30;36.97;;;22.95;;
43311;SDS011;30041;48.300;16.352;2024-03-08T05:34:57;38.83;;;22.65;;
43311;SDS011;30041;48.300;16.352;2024-03-08T05:37:23;39.85;;;23.13;;
43311;SDS011;30041;48.300;16.352;2024-03-08T05:39:52;40.63;;;23.73;;
43311;SDS011;30041;48.300;16.352;2024-03-08T05:42:18;38.53;;;21.85;;
43311;SDS011;30041;48.300;16.352;2024-03-08T05:44:47;36.70;;;22.17;;
43311;SDS011;30041;48.300;16.352;2024-03-08T05:47:14;35.05;;;20.95;;
43311;SDS011;30041;48.300;16.352;2024-03-08T05:49:40;32.42;;;21.00;;
43311;SDS011;30041;48.300;16.352;2024-03-08T05:52:07;37.28;;;20.67;;
43311;SDS011;30041;48.300;16.352;2024-03-08T05:54:36;27.17;;;16.95;;
43311;SDS011;30041;48.300;16.352;2024-03-08T05:57:03;26.38;;;16.80;;
43311;SDS011;30041;48.300;16.352;2024-03-08T05:59:29;24.10;;;15.82;;
43311;SDS011;30041;48.300;16.352;2024-03-08T06:01:58;25.35;;;15.65;;
43311;SDS011;30041;48.300;16.352;2024-03-08T06:04:27;27.15;;;16.05;;
43311;SDS011;30041;48.300;16.352;2024-03-08T06:06:53;25.52;;;16.10;;
43311;SDS011;30041;48.300;16.352;2024-03-08T06:09:22;26.08;;;16.58;;
43311;SDS011;30041;48.300;16.352;2024-03-08T06:11:49;30.33;;;16.45;;
43311;SDS011;30041;48.300;16.352;2024-03-08T06:14:25;24.90;;;14.82;;
43311;SDS011;30041;48.300;16.352;2024-03-08T06:16:52;25.30;;;16.05;;
43311;SDS011;30041;48.300;16.352;2024-03-08T06:19:19;23.52;;;14.75;;
43311;SDS011;30041;48.300;16.352;2024-03-08T06:21:48;24.90;;;14.93;;
43311;SDS011;30041;48.300;16.352;2024-03-08T06:24:13;22.15;;;14.38;;
43311;SDS011;30041;48.300;16.352;2024-03-08T06:26:43;24.02;;;14.65;;
43311;SDS011;30041;48.300;16.352;2024-03-08T06:29:10;24.08;;;14.35;;
43311;SDS011;30041;48.300;16.352;2024-03-08T06:31:36;22.55;;;14.45;;
43311;SDS011;30041;48.300;16.352;2024-03-08T06:34:02;22.33;;;14.23;;
43311;SDS011;30041;48.300;16.352;2024-03-08T06:36:32;21.80;;;14.05;;
43311;SDS011;30041;48.300;16.352;2024-03-08T06:38:57;20.08;;;12.77;;
43311;SDS011;30041;48.300;16.352;2024-03-08T06:41:23;22.13;;;12.95;;
43311;SDS011;30041;48.300;16.352;2024-03-08T06:43:49;19.23;;;12.93;;
43311;SDS011;30041;48.300;16.352;2024-03-08T06:46:16;21.77;;;13.48;;
43311;SDS011;30041;48.300;16.352;2024-03-08T06:48:42;19.75;;;11.90;;
43311;SDS011;30041;48.300;16.352;2024-03-08T06:51:12;21.30;;;12.75;;
43311;SDS011;30041;48.300;16.352;2024-03-08T06:53:39;17.90;;;12.05;;
43311;SDS011;30041;48.300;16.352;2024-03-08T06:56:06;20.85;;;12.45;;
43311;SDS011;30041;48.300;16.352;2024-03-08T06:58:33;18.80;;;12.95;;
43311;SDS011;30041;48.300;16.352;2024-03-08T07:00:59;18.08;;;11.63;;
43311;SDS011;30041;48.300;16.352;2024-03-08T07:03:29;17.80;;;12.38;;
43311;SDS011;30041;48.300;16.352;2024-03-08T07:06:05;17.73;;;11.95;;
43311;SDS011;30041;48.300;16.352;2024-03-08T07:08:32;17.73;;;11.27;;
43311;SDS011;30041;48.300;16.352;2024-03-08T07:11:01;18.65;;;12.02;;
43311;SDS011;30041;48.300;16.352;2024-03-08T07:13:28;15.73;;;10.98;;
43311;SDS011;30041;48.300;16.352;2024-03-08T07:16:00;16.70;;;11.25;;
43311;SDS011;30041;48.300;16.352;2024-03-08T07:18:26;19.20;;;11.38;;
43311;SDS011;30041;48.300;16.352;2024-03-08T07:20:53;16.55;;;10.70;;
43311;SDS011;30041;48.300;16.352;2024-03-08T07:23:20;15.38;;;11.00;;
43311;SDS011;30041;48.300;16.352;2024-03-08T07:25:46;16.35;;;11.00;;
43311;SDS011;30041;48.300;16.352;2024-03-08T07:28:14;14.98;;;9.93;;
43311;SDS011;30041;48.300;16.352;2024-03-08T07:30:40;13.93;;;9.40;;
43311;SDS011;30041;48.300;16.352;2024-03-08T07:33:07;21.30;;;13.63;;
43311;SDS011;30041;48.300;16.352;2024-03-08T07:35:34;22.70;;;13.18;;
43311;SDS011;30041;48.300;16.352;2024-03-08T07:38:00;25.70;;;14.82;;
43311;SDS011;30041;48.300;16.352;2024-03-08T07:40:27;21.48;;;14.27;;
43311;SDS011;30041;48.300;16.352;2024-03-08T07:42:53;26.58;;;14.93;;
43311;SDS011;30041;48.300;16.352;2024-03-08T07:45:20;27.10;;;14.60;;
43311;SDS011;30041;48.300;16.352;2024-03-08T07:47:47;30.63;;;15.70;;
43311;SDS011;30041;48.300;16.352;2024-03-08T07:50:14;26.77;;;15.13;;
43311;SDS011;30041;48.300;16.352;2024-03-08T07:52:40;25.73;;;14.27;;
43311;SDS011;30041;48.300;16.352;2024-03-08T07:55:09;28.73;;;14.60;;
43311;SDS011;30041;48.300;16.352;2024-03-08T07:57:36;27.98;;;15.60;;
43311;SDS011;30041;48.300;16.352;2024-03-08T08:00:03;31.27;;;18.58;;
43311;SDS011;30041;48.300;16.352;2024-03-08T08:02:34;26.60;;;18.90;;
43311;SDS011;30041;48.300;16.352;2024-03-08T08:05:01;30.85;;;18.38;;
43311;SDS011;30041;48.300;16.352;2024-03-08T08:07:27;31.33;;;18.35;;
43311;SDS011;30041;48.300;16.352;2024-03-08T08:09:59;26.13;;;16.77;;
43311;SDS011;30041;48.300;16.352;2024-03-08T08:12:26;35.63;;;17.23;;
43311;SDS011;30041;48.300;16.352;2024-03-08T08:14:52;30.15;;;16.60;;
43311;SDS011;30041;48.300;16.352;2024-03-08T08:17:18;26.70;;;15.60;;
43311;SDS011;30041;48.300;16.352;2024-03-08T08:19:45;25.05;;;15.45;;
43311;SDS011;30041;48.300;16.352;2024-03-08T08:22:11;27.15;;;16.13;;
43311;SDS011;30041;48.300;16.352;2024-03-08T08:24:37;24.50;;;15.30;;
43311;SDS011;30041;48.300;16.352;2024-03-08T08:27:04;25.15;;;16.20;;
43311;SDS011;30041;48.300;16.352;2024-03-08T08:29:31;29.58;;;18.08;;
43311;SDS011;30041;48.300;16.352;2024-03-08T08:31:59;29.60;;;17.52;;
43311;SDS011;30041;48.300;16.352;2024-03-08T08:34:25;25.88;;;16.08;;
43311;SDS011;30041;48.300;16.352;2024-03-08T08:36:55;23.08;;;15.50;;
43311;SDS011;30041;48.300;16.352;2024-03-08T08:39:22;28.25;;;15.60;;
43311;SDS011;30041;48.300;16.352;2024-03-08T08:41:51;26.35;;;14.38;;
43311;SDS011;30041;48.300;16.352;2024-03-08T08:44:20;22.80;;;14.85;;
43311;SDS011;30041;48.300;16.352;2024-03-08T08:46:47;23.17;;;15.52;;
43311;SDS011;30041;48.300;16.352;2024-03-08T08:49:16;27.70;;;20.38;;
43311;SDS011;30041;48.300;16.352;2024-03-08T08:51:48;28.60;;;19.67;;
43311;SDS011;30041;48.300;16.352;2024-03-08T08:54:20;23.77;;;16.65;;
43311;SDS011;30041;48.300;16.352;2024-03-08T08:56:47;28.60;;;20.35;;
43311;SDS011;30041;48.300;16.352;2024-03-08T08:59:13;25.75;;;16.30;;
43311;SDS011;30041;48.300;16.352;2024-03-08T09:01:40;23.75;;;16.00;;
43311;SDS011;30041;48.300;16.352;2024-03-08T09:04:06;26.20;;;15.13;;
43311;SDS011;30041;48.300;16.352;2024-03-08T09:06:31;24.95;;;14.25;;
43311;SDS011;30041;48.300;16.352;2024-03-08T09:08:57;21.55;;;14.70;;
43311;SDS011;30041;48.300;16.352;2024-03-08T09:11:23;26.13;;;13.93;;
43311;SDS011;30041;48.300;16.352;2024-03-08T09:13:55;21.92;;;13.88;;
43311;SDS011;30041;48.300;16.352;2024-03-08T09:16:24;22.58;;;13.13;;
43311;SDS011;30041;48.300;16.352;2024-03-08T09:18:53;20.38;;;12.80;;
43311;SDS011;30041;48.300;16.352;2024-03-08T09:21:18;21.90;;;12.90;;
43311;SDS011;30041;48.300;16.352;2024-03-08T09:23:50;25.33;;;12.50;;
43311;SDS011;30041;48.300;16.352;2024-03-08T09:26:16;23.70;;;12.20;;
43311;SDS011;30041;48.300;16.352;2024-03-08T09:28:42;17.70;;;12.88;;
43311;SDS011;30041;48.300;16.352;2024-03-08T09:31:08;23.58;;;12.95;;
43311;SDS011;30041;48.300;16.352;2024-03-08T09:33:35;17.45;;;11.40;;
43311;SDS011;30041;48.300;16.352;2024-03-08T09:36:01;22.02;;;12.50;;
43311;SDS011;30041;48.300;16.352;2024-03-08T09:38:27;20.77;;;11.90;;
43311;SDS011;30041;48.300;16.352;2024-03-08T09:40:56;19.98;;;12.68;;
43311;SDS011;30041;48.300;16.352;2024-03-08T09:43:23;19.35;;;11.77;;
43311;SDS011;30041;48.300;16.352;2024-03-08T09:45:56;18.88;;;11.98;;
43311;SDS011;30041;48.300;16.352;2024-03-08T09:48:23;18.65;;;11.50;;
43311;SDS011;30041;48.300;16.352;2024-03-08T09:50:51;18.85;;;11.75;;
43311;SDS011;30041;48.300;16.352;2024-03-08T09:53:18;16.90;;;10.68;;
43311;SDS011;30041;48.300;16.352;2024-03-08T09:55:47;18.90;;;12.02;;
43311;SDS011;30041;48.300;16.352;2024-03-08T09:58:17;17.08;;;10.52;;
43311;SDS011;30041;48.300;16.352;2024-03-08T10:00:52;21.08;;;11.75;;
43311;SDS011;30041;48.300;16.352;2024-03-08T10:03:22;17.55;;;10.80;;
43311;SDS011;30041;48.300;16.352;2024-03-08T10:05:48;18.85;;;11.00;;
43311;SDS011;30041;48.300;16.352;2024-03-08T10:08:18;16.50;;;10.77;;
43311;SDS011;30041;48.300;16.352;2024-03-08T10:10:50;18.92;;;10.48;;
43311;SDS011;30041;48.300;16.352;2024-03-08T10:13:16;17.13;;;11.77;;
43311;SDS011;30041;48.300;16.352;2024-03-08T10:15:43;16.75;;;11.15;;
43311;SDS011;30041;48.300;16.352;2024-03-08T10:18:10;24.23;;;11.82;;
43311;SDS011;30041;48.300;16.352;2024-03-08T10:20:36;18.77;;;11.57;;
43311;SDS011;30041;48.300;16.352;2024-03-08T10:23:05;18.13;;;11.63;;
43311;SDS011;30041;48.300;16.352;2024-03-08T10:25:35;19.42;;;11.93;;
43311;SDS011;30041;48.300;16.352;2024-03-08T10:28:04;21.92;;;12.70;;
43311;SDS011;30041;48.300;16.352;2024-03-08T10:30:34;21.00;;;12.57;;
43311;SDS011;30041;48.300;16.352;2024-03-08T10:33:00;19.65;;;12.75;;
43311;SDS011;30041;48.300;16.352;2024-03-08T10:35:26;20.25;;;13.52;;
43311;SDS011;30041;48.300;16.352;2024-03-08T10:37:53;20.73;;;13.20;;
43311;SDS011;30041;48.300;16.352;2024-03-08T10:40:23;21.90;;;12.68;;
43311;SDS011;30041;48.300;16.352;2024-03-08T10:42:54;19.73;;;12.93;;
43311;SDS011;30041;48.300;16.352;2024-03-08T10:45:38;22.33;;;12.95;;
43311;SDS011;30041;48.300;16.352;2024-03-08T10:50:54;19.33;;;12.90;;
43311;SDS011;30041;48.300;16.352;2024-03-08T10:53:22;21.17;;;13.38;;
43311;SDS011;30041;48.300;16.352;2024-03-08T10:55:49;19.08;;;12.10;;
43311;SDS011;30041;48.300;16.352;2024-03-08T10:58:15;17.75;;;12.18;;
43311;SDS011;30041;48.300;16.352;2024-03-08T11:00:43;20.42;;;12.18;;
43311;SDS011;30041;48.300;16.352;2024-03-08T11:03:43;23.67;;;12.93;;
43311;SDS011;30041;48.300;16.352;2024-03-08T11:06:04;16.27;;;11.73;;
43311;SDS011;30041;48.300;16.352;2024-03-08T11:08:31;19.25;;;11.63;;
43311;SDS011;30041;48.300;16.352;2024-03-08T11:10:58;18.67;;;12.82;;
43311;SDS011;30041;48.300;16.352;2024-03-08T11:13:34;18.73;;;11.57;;
43311;SDS011;30041;48.300;16.352;2024-03-08T11:16:01;19.48;;;12.18;;
43311;SDS011;30041;48.300;16.352;2024-03-08T11:18:28;21.58;;;13.40;;
43311;SDS011;30041;48.300;16.352;2024-03-08T11:20:58;16.95;;;12.63;;
43311;SDS011;30041;48.300;16.352;2024-03-08T11:23:27;20.85;;;12.18;;
43311;SDS011;30041;48.300;16.352;2024-03-08T11:25:55;18.00;;;11.32;;
43311;SDS011;30041;48.300;16.352;2024-03-08T11:28:23;17.45;;;11.57;;
43311;SDS011;30041;48.300;16.352;2024-03-08T11:33:31;17.65;;;11.13;;
43311;SDS011;30041;48.300;16.352;2024-03-08T11:38:34;21.30;;;11.82;;
43311;SDS011;30041;48.300;16.352;2024-03-08T11:41:06;14.65;;;10.52;;
43311;SDS011;30041;48.300;16.352;2024-03-08T11:43:35;15.40;;;10.65;;
43311;SDS011;30041;48.300;16.352;2024-03-08T11:46:07;17.98;;;11.07;;
43311;SDS011;30041;48.300;16.352;2024-03-08T11:48:40;19.40;;;11.70;;
43311;SDS011;30041;48.300;16.352;2024-03-08T11:51:16;20.90;;;11.25;;
43311;SDS011;30041;48.300;16.352;2024-03-08T11:53:43;15.98;;;10.93;;
43311;SDS011;30041;48.300;16.352;2024-03-08T11:56:10;18.73;;;10.70;;
43311;SDS011;30041;48.300;16.352;2024-03-08T11:58:38;15.32;;;9.98;;
43311;SDS011;30041;48.300;16.352;2024-03-08T12:01:07;18.27;;;10.43;;
43311;SDS011;30041;48.300;16.352;2024-03-08T12:03:37;19.90;;;10.95;;
43311;SDS011;30041;48.300;16.352;2024-03-08T12:06:06;23.83;;;10.38;;
43311;SDS011;30041;48.300;16.352;2024-03-08T12:08:33;16.65;;;9.98;;
43311;SDS011;30041;48.300;16.352;2024-03-08T12:11:01;15.50;;;10.10;;
43311;SDS011;30041;48.300;16.352;2024-03-08T12:13:30;26.58;;;11.05;;
43311;SDS011;30041;48.300;16.352;2024-03-08T12:15:58;17.42;;;10.32;;
43311;SDS011;30041;48.300;16.352;2024-03-08T12:18:25;15.02;;;9.88;;
43311;SDS011;30041;48.300;16.352;2024-03-08T12:21:03;17.33;;;9.77;;
43311;SDS011;30041;48.300;16.352;2024-03-08T12:23:35;20.88;;;9.50;;
43311;SDS011;30041;48.300;16.352;2024-03-08T12:28:50;16.40;;;10.45;;
43311;SDS011;30041;48.300;16.352;2024-03-08T12:31:17;16.27;;;9.60;;
43311;SDS011;30041;48.300;16.352;2024-03-08T12:33:48;14.55;;;9.05;;
43311;SDS011;30041;48.300;16.352;2024-03-08T12:36:21;17.88;;;8.85;;
43311;SDS011;30041;48.300;16.352;2024-03-08T12:38:50;13.18;;;9.13;;
43311;SDS011;30041;48.300;16.352;2024-03-08T12:41:19;13.93;;;8.65;;
43311;SDS011;30041;48.300;16.352;2024-03-08T12:43:46;12.90;;;8.75;;
43311;SDS011;30041;48.300;16.352;2024-03-08T12:46:12;15.00;;;8.43;;
43311;SDS011;30041;48.300;16.352;2024-03-08T12:48:38;15.38;;;8.77;;
43311;SDS011;30041;48.300;16.352;2024-03-08T12:51:08;13.75;;;9.02;;
43311;SDS011;30041;48.300;16.352;2024-03-08T12:53:34;14.85;;;8.30;;
43311;SDS011;30041;48.300;16.352;2024-03-08T12:56:00;14.30;;;9.10;;
43311;SDS011;30041;48.300;16.352;2024-03-08T12:58:27;13.90;;;8.35;;
43311;SDS011;30041;48.300;16.352;2024-03-08T13:00:54;12.52;;;8.57;;
43311;SDS011;30041;48.300;16.352;2024-03-08T13:03:20;12.77;;;8.63;;
43311;SDS011;30041;48.300;16.352;2024-03-08T13:05:46;14.63;;;8.38;;
43311;SDS011;30041;48.300;16.352;2024-03-08T13:08:12;12.43;;;8.48;;
43311;SDS011;30041;48.300;16.352;2024-03-08T13:10:41;11.30;;;8.27;;
43311;SDS011;30041;48.300;16.352;2024-03-08T13:13:11;14.02;;;8.27;;
43311;SDS011;30041;48.300;16.352;2024-03-08T13:15:37;11.02;;;8.13;;
43311;SDS011;30041;48.300;16.352;2024-03-08T13:18:06;12.70;;;8.27;;
43311;SDS011;30041;48.300;16.352;2024-03-08T13:20:33;13.85;;;7.78;;
43311;SDS011;30041;48.300;16.352;2024-03-08T13:22:59;21.05;;;8.90;;
43311;SDS011;30041;48.300;16.352;2024-03-08T13:25:25;13.40;;;7.80;;
43311;SDS011;30041;48.300;16.352;2024-03-08T13:27:52;14.38;;;8.23;;
43311;SDS011;30041;48.300;16.352;2024-03-08T13:30:18;9.93;;;7.45;;
43311;SDS011;30041;48.300;16.352;2024-03-08T13:32:44;17.35;;;7.72;;
43311;SDS011;30041;48.300;16.352;2024-03-08T13:35:13;14.02;;;8.23;;
43311;SDS011;30041;48.300;16.352;2024-03-08T13:37:40;14.18;;;7.80;;
43311;SDS011;30041;48.300;16.352;2024-03-08T13:40:09;16.35;;;8.35;;
43311;SDS011;30041;48.300;16.352;2024-03-08T13:42:42;13.60;;;8.38;;
43311;SDS011;30041;48.300;16.352;2024-03-08T13:45:08;11.32;;;7.47;;
43311;SDS011;30041;48.300;16.352;2024-03-08T13:47:35;13.05;;;6.93;;
43311;SDS011;30041;48.300;16.352;2024-03-08T13:50:04;19.50;;;8.13;;
43311;SDS011;30041;48.300;16.352;2024-03-08T13:52:31;15.90;;;7.03;;
43311;SDS011;30041;48.300;16.352;2024-03-08T13:54:58;15.85;;;7.60;;
43311;SDS011;30041;48.300;16.352;2024-03-08T13:57:27;14.18;;;7.07;;
43311;SDS011;30041;48.300;16.352;2024-03-08T13:59:53;12.48;;;7.03;;
43311;SDS011;30041;48.300;16.352;2024-03-08T14:02:19;11.38;;;7.05;;
43311;SDS011;30041;48.300;16.352;2024-03-08T14:04:49;10.88;;;7.07;;
43311;SDS011;30041;48.300;16.352;2024-03-08T14:07:18;17.85;;;7.47;;
43311;SDS011;30041;48.300;16.352;2024-03-08T14:09:44;14.00;;;7.35;;
43311;SDS011;30041;48.300;16.352;2024-03-08T14:12:14;11.02;;;7.10;;
43311;SDS011;30041;48.300;16.352;2024-03-08T14:14:43;14.30;;;7.68;;
43311;SDS011;30041;48.300;16.352;2024-03-08T14:17:10;13.10;;;7.00;;
43311;SDS011;30041;48.300;16.352;2024-03-08T14:19:37;19.00;;;7.00;;
43311;SDS011;30041;48.300;16.352;2024-03-08T14:22:03;12.63;;;7.20;;
43311;SDS011;30041;48.300;16.352;2024-03-08T14:24:30;13.23;;;6.90;;
43311;SDS011;30041;48.300;16.352;2024-03-08T14:26:59;12.07;;;6.30;;
43311;SDS011;30041;48.300;16.352;2024-03-08T14:29:25;14.80;;;7.22;;
43311;SDS011;30041;48.300;16.352;2024-03-08T14:31:55;10.73;;;6.72;;
43311;SDS011;30041;48.300;16.352;2024-03-08T14:34:21;12.32;;;6.80;;
43311;SDS011;30041;48.300;16.352;2024-03-08T14:36:48;17.73;;;6.93;;